The Weather Page

Only for information, data not for operational purposes.

ELLX Aeronautical Report by METEOLUX

ELLX Current METAR and TAF

ELLX 182150Z 25003KT CAVOK 20/12 Q1014 NOSIG

TAF ELLX 181700Z 1818/1924 24009KT CAVOK BECMG 1823/1901 9999 BKN030 TEMPO 1904/1909 6000 -RA SCT010 BKN015 TEMPO 1912/1918 7000 -SHRA FEW020TCU BKN025

METAR's and TAF's

METAR/TAF from US-NOAA-ADDS. Enter one or more ICAO codes separated by spaces:

METAR TAF 

A list of weather stations and their ICAO and IATA codes is found on this page.

Flight Preparation

EUMETSAT Infrared

Eumetsat Infrared

METEOX Radar

METEOX Radar Image

Comments are closed.